sensor_id;sensor_type;location;lat;lon;timestamp;P1;durP1;ratioP1;P2;durP2;ratioP2
2023;SDS011;1016;48.770;9.154;2023-01-23T00:01:17;22.67;;;9.23;;
2023;SDS011;1016;48.770;9.154;2023-01-23T00:03:47;23.27;;;9.00;;
2023;SDS011;1016;48.770;9.154;2023-01-23T00:06:13;23.03;;;9.30;;
2023;SDS011;1016;48.770;9.154;2023-01-23T00:08:40;22.53;;;9.10;;
2023;SDS011;1016;48.770;9.154;2023-01-23T00:11:09;22.90;;;8.90;;
2023;SDS011;1016;48.770;9.154;2023-01-23T00:13:38;23.23;;;9.47;;
2023;SDS011;1016;48.770;9.154;2023-01-23T00:16:04;23.90;;;8.70;;
2023;SDS011;1016;48.770;9.154;2023-01-23T00:18:31;23.77;;;9.47;;
2023;SDS011;1016;48.770;9.154;2023-01-23T00:20:56;21.93;;;8.53;;
2023;SDS011;1016;48.770;9.154;2023-01-23T00:23:22;24.27;;;9.13;;
2023;SDS011;1016;48.770;9.154;2023-01-23T00:25:48;22.53;;;8.70;;
2023;SDS011;1016;48.770;9.154;2023-01-23T00:28:13;22.07;;;8.10;;
2023;SDS011;1016;48.770;9.154;2023-01-23T00:30:39;23.07;;;9.40;;
2023;SDS011;1016;48.770;9.154;2023-01-23T00:33:05;26.53;;;9.30;;
2023;SDS011;1016;48.770;9.154;2023-01-23T00:35:30;24.03;;;9.00;;
2023;SDS011;1016;48.770;9.154;2023-01-23T00:37:58;23.83;;;9.40;;
2023;SDS011;1016;48.770;9.154;2023-01-23T00:40:24;24.07;;;9.40;;
2023;SDS011;1016;48.770;9.154;2023-01-23T00:42:49;24.27;;;9.93;;
2023;SDS011;1016;48.770;9.154;2023-01-23T00:45:15;24.97;;;10.00;;
2023;SDS011;1016;48.770;9.154;2023-01-23T00:47:40;23.47;;;9.10;;
2023;SDS011;1016;48.770;9.154;2023-01-23T00:50:06;24.47;;;10.13;;
2023;SDS011;1016;48.770;9.154;2023-01-23T00:52:32;23.87;;;9.07;;
2023;SDS011;1016;48.770;9.154;2023-01-23T00:54:57;23.70;;;8.57;;
2023;SDS011;1016;48.770;9.154;2023-01-23T00:57:23;23.47;;;9.50;;
2023;SDS011;1016;48.770;9.154;2023-01-23T00:59:48;24.10;;;8.87;;
2023;SDS011;1016;48.770;9.154;2023-01-23T01:02:14;24.07;;;8.80;;
2023;SDS011;1016;48.770;9.154;2023-01-23T01:04:39;23.93;;;8.73;;
2023;SDS011;1016;48.770;9.154;2023-01-23T01:07:05;22.30;;;8.23;;
2023;SDS011;1016;48.770;9.154;2023-01-23T01:09:30;23.27;;;8.33;;
2023;SDS011;1016;48.770;9.154;2023-01-23T01:11:56;21.70;;;8.27;;
2023;SDS011;1016;48.770;9.154;2023-01-23T01:14:21;23.27;;;8.83;;
2023;SDS011;1016;48.770;9.154;2023-01-23T01:16:47;23.73;;;9.07;;
2023;SDS011;1016;48.770;9.154;2023-01-23T01:19:13;22.97;;;8.43;;
2023;SDS011;1016;48.770;9.154;2023-01-23T01:21:40;22.73;;;8.37;;
2023;SDS011;1016;48.770;9.154;2023-01-23T01:24:06;21.67;;;8.53;;
2023;SDS011;1016;48.770;9.154;2023-01-23T01:26:33;22.50;;;8.30;;
2023;SDS011;1016;48.770;9.154;2023-01-23T01:28:58;22.93;;;8.53;;
2023;SDS011;1016;48.770;9.154;2023-01-23T01:31:24;24.27;;;8.40;;
2023;SDS011;1016;48.770;9.154;2023-01-23T01:33:50;22.77;;;9.07;;
2023;SDS011;1016;48.770;9.154;2023-01-23T01:36:16;23.47;;;8.43;;
2023;SDS011;1016;48.770;9.154;2023-01-23T01:38:43;22.83;;;8.00;;
2023;SDS011;1016;48.770;9.154;2023-01-23T01:41:08;23.37;;;8.90;;
2023;SDS011;1016;48.770;9.154;2023-01-23T01:43:35;22.70;;;8.30;;
2023;SDS011;1016;48.770;9.154;2023-01-23T01:46:18;21.80;;;8.30;;
2023;SDS011;1016;48.770;9.154;2023-01-23T01:48:55;22.40;;;8.83;;
2023;SDS011;1016;48.770;9.154;2023-01-23T01:51:27;23.77;;;9.23;;
2023;SDS011;1016;48.770;9.154;2023-01-23T01:54:05;22.73;;;7.70;;
2023;SDS011;1016;48.770;9.154;2023-01-23T01:56:46;23.67;;;8.63;;
2023;SDS011;1016;48.770;9.154;2023-01-23T01:59:20;22.10;;;8.03;;
2023;SDS011;1016;48.770;9.154;2023-01-23T02:01:49;23.00;;;8.80;;
2023;SDS011;1016;48.770;9.154;2023-01-23T02:04:19;22.40;;;8.27;;
2023;SDS011;1016;48.770;9.154;2023-01-23T02:06:45;22.37;;;8.57;;
2023;SDS011;1016;48.770;9.154;2023-01-23T02:09:16;22.10;;;8.50;;
2023;SDS011;1016;48.770;9.154;2023-01-23T02:11:47;22.40;;;8.60;;
2023;SDS011;1016;48.770;9.154;2023-01-23T02:14:14;23.30;;;8.93;;
2023;SDS011;1016;48.770;9.154;2023-01-23T02:16:39;22.23;;;8.20;;
2023;SDS011;1016;48.770;9.154;2023-01-23T02:19:13;23.70;;;8.53;;
2023;SDS011;1016;48.770;9.154;2023-01-23T02:22:23;23.93;;;8.83;;
2023;SDS011;1016;48.770;9.154;2023-01-23T02:24:58;23.50;;;8.57;;
2023;SDS011;1016;48.770;9.154;2023-01-23T02:27:43;22.60;;;8.43;;
2023;SDS011;1016;48.770;9.154;2023-01-23T02:30:09;23.57;;;8.77;;
2023;SDS011;1016;48.770;9.154;2023-01-23T02:32:36;24.37;;;8.97;;
2023;SDS011;1016;48.770;9.154;2023-01-23T02:35:07;21.47;;;8.13;;
2023;SDS011;1016;48.770;9.154;2023-01-23T02:37:35;23.50;;;9.30;;
2023;SDS011;1016;48.770;9.154;2023-01-23T02:40:05;22.90;;;8.70;;
2023;SDS011;1016;48.770;9.154;2023-01-23T02:42:31;22.60;;;8.53;;
2023;SDS011;1016;48.770;9.154;2023-01-23T02:44:58;22.27;;;8.50;;
2023;SDS011;1016;48.770;9.154;2023-01-23T02:47:23;23.70;;;9.33;;
2023;SDS011;1016;48.770;9.154;2023-01-23T02:49:49;22.90;;;9.30;;
2023;SDS011;1016;48.770;9.154;2023-01-23T02:52:15;24.23;;;9.53;;
2023;SDS011;1016;48.770;9.154;2023-01-23T02:54:40;23.53;;;8.87;;
2023;SDS011;1016;48.770;9.154;2023-01-23T02:57:06;23.43;;;8.87;;
2023;SDS011;1016;48.770;9.154;2023-01-23T02:59:31;23.30;;;8.83;;
2023;SDS011;1016;48.770;9.154;2023-01-23T03:02:16;25.30;;;9.30;;
2023;SDS011;1016;48.770;9.154;2023-01-23T03:04:41;24.23;;;9.40;;
2023;SDS011;1016;48.770;9.154;2023-01-23T03:07:07;22.80;;;9.30;;
2023;SDS011;1016;48.770;9.154;2023-01-23T03:09:32;24.27;;;9.50;;
2023;SDS011;1016;48.770;9.154;2023-01-23T03:11:58;23.50;;;9.43;;
2023;SDS011;1016;48.770;9.154;2023-01-23T03:14:24;25.50;;;9.63;;
2023;SDS011;1016;48.770;9.154;2023-01-23T03:16:50;24.10;;;8.80;;
2023;SDS011;1016;48.770;9.154;2023-01-23T03:19:18;23.60;;;10.00;;
2023;SDS011;1016;48.770;9.154;2023-01-23T03:21:47;26.40;;;9.90;;
2023;SDS011;1016;48.770;9.154;2023-01-23T03:24:12;25.17;;;10.10;;
2023;SDS011;1016;48.770;9.154;2023-01-23T03:26:39;23.80;;;10.03;;
2023;SDS011;1016;48.770;9.154;2023-01-23T03:29:06;23.67;;;9.40;;
2023;SDS011;1016;48.770;9.154;2023-01-23T03:31:50;26.60;;;9.90;;
2023;SDS011;1016;48.770;9.154;2023-01-23T03:34:16;24.53;;;10.20;;
2023;SDS011;1016;48.770;9.154;2023-01-23T03:36:42;26.90;;;10.77;;
2023;SDS011;1016;48.770;9.154;2023-01-23T03:39:08;24.50;;;10.53;;
2023;SDS011;1016;48.770;9.154;2023-01-23T03:41:52;24.10;;;9.53;;
2023;SDS011;1016;48.770;9.154;2023-01-23T03:44:18;24.57;;;10.37;;
2023;SDS011;1016;48.770;9.154;2023-01-23T03:46:45;24.90;;;10.27;;
2023;SDS011;1016;48.770;9.154;2023-01-23T03:49:11;25.47;;;10.60;;
2023;SDS011;1016;48.770;9.154;2023-01-23T03:51:37;25.90;;;10.53;;
2023;SDS011;1016;48.770;9.154;2023-01-23T03:54:03;23.87;;;9.40;;
2023;SDS011;1016;48.770;9.154;2023-01-23T03:56:28;24.67;;;10.70;;
2023;SDS011;1016;48.770;9.154;2023-01-23T03:58:54;25.87;;;10.10;;
2023;SDS011;1016;48.770;9.154;2023-01-23T04:01:19;24.87;;;10.53;;
2023;SDS011;1016;48.770;9.154;2023-01-23T04:03:45;23.60;;;9.60;;
2023;SDS011;1016;48.770;9.154;2023-01-23T04:06:11;25.60;;;11.47;;
2023;SDS011;1016;48.770;9.154;2023-01-23T04:08:36;25.27;;;10.60;;
2023;SDS011;1016;48.770;9.154;2023-01-23T04:11:03;26.20;;;10.63;;
2023;SDS011;1016;48.770;9.154;2023-01-23T04:13:30;25.47;;;10.97;;
2023;SDS011;1016;48.770;9.154;2023-01-23T04:15:56;24.93;;;10.10;;
2023;SDS011;1016;48.770;9.154;2023-01-23T04:18:21;25.07;;;10.30;;
2023;SDS011;1016;48.770;9.154;2023-01-23T04:20:47;25.40;;;11.00;;
2023;SDS011;1016;48.770;9.154;2023-01-23T04:23:12;25.87;;;10.83;;
2023;SDS011;1016;48.770;9.154;2023-01-23T04:25:38;25.23;;;10.53;;
2023;SDS011;1016;48.770;9.154;2023-01-23T04:28:03;25.47;;;10.73;;
2023;SDS011;1016;48.770;9.154;2023-01-23T04:30:29;24.90;;;10.27;;
2023;SDS011;1016;48.770;9.154;2023-01-23T04:32:54;25.20;;;10.20;;
2023;SDS011;1016;48.770;9.154;2023-01-23T04:35:20;24.97;;;9.97;;
2023;SDS011;1016;48.770;9.154;2023-01-23T04:37:46;26.33;;;11.07;;
2023;SDS011;1016;48.770;9.154;2023-01-23T04:40:11;27.83;;;11.63;;
2023;SDS011;1016;48.770;9.154;2023-01-23T04:42:37;24.33;;;10.87;;
2023;SDS011;1016;48.770;9.154;2023-01-23T04:45:02;26.13;;;11.57;;
2023;SDS011;1016;48.770;9.154;2023-01-23T04:47:28;26.67;;;11.67;;
2023;SDS011;1016;48.770;9.154;2023-01-23T04:49:54;26.77;;;11.10;;
2023;SDS011;1016;48.770;9.154;2023-01-23T04:52:19;24.37;;;10.20;;
2023;SDS011;1016;48.770;9.154;2023-01-23T04:54:45;25.90;;;11.90;;
2023;SDS011;1016;48.770;9.154;2023-01-23T04:57:10;24.60;;;10.43;;
2023;SDS011;1016;48.770;9.154;2023-01-23T04:59:36;24.73;;;10.50;;
2023;SDS011;1016;48.770;9.154;2023-01-23T05:02:01;25.90;;;11.13;;
2023;SDS011;1016;48.770;9.154;2023-01-23T05:04:27;24.70;;;10.67;;
2023;SDS011;1016;48.770;9.154;2023-01-23T05:06:52;26.40;;;11.50;;
2023;SDS011;1016;48.770;9.154;2023-01-23T05:09:18;25.17;;;10.70;;
2023;SDS011;1016;48.770;9.154;2023-01-23T05:11:43;26.57;;;11.20;;
2023;SDS011;1016;48.770;9.154;2023-01-23T05:14:09;26.00;;;10.63;;
2023;SDS011;1016;48.770;9.154;2023-01-23T05:16:34;25.50;;;10.83;;
2023;SDS011;1016;48.770;9.154;2023-01-23T05:19:00;25.70;;;11.07;;
2023;SDS011;1016;48.770;9.154;2023-01-23T05:21:25;24.80;;;10.37;;
2023;SDS011;1016;48.770;9.154;2023-01-23T05:23:51;25.27;;;10.80;;
2023;SDS011;1016;48.770;9.154;2023-01-23T05:26:16;25.70;;;10.63;;
2023;SDS011;1016;48.770;9.154;2023-01-23T05:28:42;26.03;;;11.30;;
2023;SDS011;1016;48.770;9.154;2023-01-23T05:31:07;25.03;;;10.87;;
2023;SDS011;1016;48.770;9.154;2023-01-23T05:33:33;27.83;;;10.83;;
2023;SDS011;1016;48.770;9.154;2023-01-23T05:35:59;26.80;;;11.03;;
2023;SDS011;1016;48.770;9.154;2023-01-23T05:38:25;27.27;;;10.83;;
2023;SDS011;1016;48.770;9.154;2023-01-23T05:40:51;26.53;;;11.80;;
2023;SDS011;1016;48.770;9.154;2023-01-23T05:43:16;26.00;;;11.00;;
2023;SDS011;1016;48.770;9.154;2023-01-23T05:45:42;26.23;;;11.07;;
2023;SDS011;1016;48.770;9.154;2023-01-23T05:48:07;25.77;;;11.00;;
2023;SDS011;1016;48.770;9.154;2023-01-23T05:50:33;26.53;;;10.67;;
2023;SDS011;1016;48.770;9.154;2023-01-23T05:52:58;26.33;;;11.60;;
2023;SDS011;1016;48.770;9.154;2023-01-23T05:55:24;26.43;;;10.60;;
2023;SDS011;1016;48.770;9.154;2023-01-23T05:57:49;25.77;;;10.73;;
2023;SDS011;1016;48.770;9.154;2023-01-23T06:00:15;27.37;;;11.47;;
2023;SDS011;1016;48.770;9.154;2023-01-23T06:02:41;24.60;;;10.73;;
2023;SDS011;1016;48.770;9.154;2023-01-23T06:05:07;26.20;;;11.53;;
2023;SDS011;1016;48.770;9.154;2023-01-23T06:07:32;27.70;;;11.03;;
2023;SDS011;1016;48.770;9.154;2023-01-23T06:09:58;27.90;;;11.00;;
2023;SDS011;1016;48.770;9.154;2023-01-23T06:12:24;28.10;;;11.40;;
2023;SDS011;1016;48.770;9.154;2023-01-23T06:14:49;26.80;;;11.50;;
2023;SDS011;1016;48.770;9.154;2023-01-23T06:17:15;24.93;;;9.57;;
2023;SDS011;1016;48.770;9.154;2023-01-23T06:19:40;25.90;;;11.20;;
2023;SDS011;1016;48.770;9.154;2023-01-23T06:22:06;25.10;;;9.90;;
2023;SDS011;1016;48.770;9.154;2023-01-23T06:24:31;25.37;;;11.07;;
2023;SDS011;1016;48.770;9.154;2023-01-23T06:26:57;25.80;;;11.27;;
2023;SDS011;1016;48.770;9.154;2023-01-23T06:29:22;26.50;;;11.10;;
2023;SDS011;1016;48.770;9.154;2023-01-23T06:31:48;26.20;;;10.73;;
2023;SDS011;1016;48.770;9.154;2023-01-23T06:34:14;26.47;;;10.70;;
2023;SDS011;1016;48.770;9.154;2023-01-23T06:36:40;26.30;;;11.37;;
2023;SDS011;1016;48.770;9.154;2023-01-23T06:39:06;26.63;;;10.90;;
2023;SDS011;1016;48.770;9.154;2023-01-23T06:41:32;26.00;;;11.47;;
2023;SDS011;1016;48.770;9.154;2023-01-23T06:43:58;26.63;;;10.77;;
2023;SDS011;1016;48.770;9.154;2023-01-23T06:46:23;26.80;;;11.77;;
2023;SDS011;1016;48.770;9.154;2023-01-23T06:48:49;28.40;;;11.00;;
2023;SDS011;1016;48.770;9.154;2023-01-23T06:51:16;27.83;;;11.47;;
2023;SDS011;1016;48.770;9.154;2023-01-23T06:53:41;26.33;;;11.07;;
2023;SDS011;1016;48.770;9.154;2023-01-23T06:56:07;26.40;;;11.90;;
2023;SDS011;1016;48.770;9.154;2023-01-23T06:58:38;26.30;;;11.03;;
2023;SDS011;1016;48.770;9.154;2023-01-23T07:01:07;27.27;;;11.70;;
2023;SDS011;1016;48.770;9.154;2023-01-23T07:03:37;28.30;;;11.13;;
2023;SDS011;1016;48.770;9.154;2023-01-23T07:06:03;27.70;;;11.07;;
2023;SDS011;1016;48.770;9.154;2023-01-23T07:08:31;25.67;;;10.70;;
2023;SDS011;1016;48.770;9.154;2023-01-23T07:10:57;28.50;;;11.33;;
2023;SDS011;1016;48.770;9.154;2023-01-23T07:13:23;28.23;;;11.77;;
2023;SDS011;1016;48.770;9.154;2023-01-23T07:15:49;27.07;;;11.50;;
2023;SDS011;1016;48.770;9.154;2023-01-23T07:18:15;27.83;;;11.77;;
2023;SDS011;1016;48.770;9.154;2023-01-23T07:20:43;28.73;;;11.40;;
2023;SDS011;1016;48.770;9.154;2023-01-23T07:23:09;28.07;;;11.97;;
2023;SDS011;1016;48.770;9.154;2023-01-23T07:25:35;27.80;;;11.20;;
2023;SDS011;1016;48.770;9.154;2023-01-23T07:28:00;27.23;;;12.20;;
2023;SDS011;1016;48.770;9.154;2023-01-23T07:30:26;28.07;;;12.10;;
2023;SDS011;1016;48.770;9.154;2023-01-23T07:32:53;27.30;;;11.20;;
2023;SDS011;1016;48.770;9.154;2023-01-23T07:35:18;27.67;;;11.17;;
2023;SDS011;1016;48.770;9.154;2023-01-23T07:37:45;29.13;;;12.30;;
2023;SDS011;1016;48.770;9.154;2023-01-23T07:40:10;27.87;;;11.73;;
2023;SDS011;1016;48.770;9.154;2023-01-23T07:42:36;27.63;;;12.43;;
2023;SDS011;1016;48.770;9.154;2023-01-23T07:45:02;28.00;;;12.10;;
2023;SDS011;1016;48.770;9.154;2023-01-23T07:47:28;28.10;;;12.23;;
2023;SDS011;1016;48.770;9.154;2023-01-23T07:49:54;26.97;;;11.70;;
2023;SDS011;1016;48.770;9.154;2023-01-23T07:52:19;30.97;;;12.53;;
2023;SDS011;1016;48.770;9.154;2023-01-23T07:54:45;29.53;;;12.73;;
2023;SDS011;1016;48.770;9.154;2023-01-23T07:57:10;31.53;;;13.30;;
2023;SDS011;1016;48.770;9.154;2023-01-23T07:59:36;28.03;;;12.60;;
2023;SDS011;1016;48.770;9.154;2023-01-23T08:02:01;28.50;;;12.97;;
2023;SDS011;1016;48.770;9.154;2023-01-23T08:04:27;28.27;;;12.63;;
2023;SDS011;1016;48.770;9.154;2023-01-23T08:06:52;30.10;;;12.60;;
2023;SDS011;1016;48.770;9.154;2023-01-23T08:09:18;32.17;;;13.13;;
2023;SDS011;1016;48.770;9.154;2023-01-23T08:11:43;28.90;;;12.77;;
2023;SDS011;1016;48.770;9.154;2023-01-23T08:14:10;30.20;;;12.80;;
2023;SDS011;1016;48.770;9.154;2023-01-23T08:16:35;29.13;;;12.57;;
2023;SDS011;1016;48.770;9.154;2023-01-23T08:19:04;30.40;;;14.10;;
2023;SDS011;1016;48.770;9.154;2023-01-23T08:21:31;30.97;;;13.40;;
2023;SDS011;1016;48.770;9.154;2023-01-23T08:23:56;29.23;;;12.60;;
2023;SDS011;1016;48.770;9.154;2023-01-23T08:26:22;28.83;;;12.80;;
2023;SDS011;1016;48.770;9.154;2023-01-23T08:28:47;29.67;;;12.90;;
2023;SDS011;1016;48.770;9.154;2023-01-23T08:31:13;29.60;;;12.63;;
2023;SDS011;1016;48.770;9.154;2023-01-23T08:33:38;29.97;;;13.80;;
2023;SDS011;1016;48.770;9.154;2023-01-23T08:36:04;30.50;;;12.87;;
2023;SDS011;1016;48.770;9.154;2023-01-23T08:38:31;29.10;;;12.33;;
2023;SDS011;1016;48.770;9.154;2023-01-23T08:41:00;29.40;;;12.93;;
2023;SDS011;1016;48.770;9.154;2023-01-23T08:43:27;30.47;;;12.73;;
2023;SDS011;1016;48.770;9.154;2023-01-23T08:45:54;30.80;;;13.23;;
2023;SDS011;1016;48.770;9.154;2023-01-23T08:48:21;28.80;;;11.93;;
2023;SDS011;1016;48.770;9.154;2023-01-23T08:50:47;30.00;;;12.13;;
2023;SDS011;1016;48.770;9.154;2023-01-23T08:53:13;31.47;;;12.97;;
2023;SDS011;1016;48.770;9.154;2023-01-23T08:55:39;29.50;;;13.00;;
2023;SDS011;1016;48.770;9.154;2023-01-23T08:58:06;28.90;;;12.40;;
2023;SDS011;1016;48.770;9.154;2023-01-23T09:00:33;28.57;;;12.13;;
2023;SDS011;1016;48.770;9.154;2023-01-23T09:02:59;30.40;;;12.70;;
2023;SDS011;1016;48.770;9.154;2023-01-23T09:05:28;30.97;;;12.30;;
2023;SDS011;1016;48.770;9.154;2023-01-23T09:07:54;29.90;;;12.87;;
2023;SDS011;1016;48.770;9.154;2023-01-23T09:10:20;29.80;;;12.40;;
2023;SDS011;1016;48.770;9.154;2023-01-23T09:12:46;28.73;;;12.17;;
2023;SDS011;1016;48.770;9.154;2023-01-23T09:15:14;28.40;;;12.20;;
2023;SDS011;1016;48.770;9.154;2023-01-23T09:17:39;31.57;;;12.47;;
2023;SDS011;1016;48.770;9.154;2023-01-23T09:20:05;29.57;;;12.10;;
2023;SDS011;1016;48.770;9.154;2023-01-23T09:22:32;27.93;;;11.67;;
2023;SDS011;1016;48.770;9.154;2023-01-23T09:24:58;28.87;;;11.97;;
2023;SDS011;1016;48.770;9.154;2023-01-23T09:27:23;26.10;;;10.40;;
2023;SDS011;1016;48.770;9.154;2023-01-23T09:29:49;27.43;;;11.07;;
2023;SDS011;1016;48.770;9.154;2023-01-23T09:32:15;26.30;;;10.83;;
2023;SDS011;1016;48.770;9.154;2023-01-23T09:34:41;24.23;;;9.30;;
2023;SDS011;1016;48.770;9.154;2023-01-23T09:37:07;27.10;;;10.37;;
2023;SDS011;1016;48.770;9.154;2023-01-23T09:39:32;26.40;;;10.07;;
2023;SDS011;1016;48.770;9.154;2023-01-23T09:42:01;25.80;;;10.00;;
2023;SDS011;1016;48.770;9.154;2023-01-23T09:46:58;26.07;;;10.17;;
2023;SDS011;1016;48.770;9.154;2023-01-23T09:52:15;24.90;;;9.60;;
2023;SDS011;1016;48.770;9.154;2023-01-23T09:55:33;26.07;;;10.50;;
2023;SDS011;1016;48.770;9.154;2023-01-23T09:57:53;24.90;;;9.43;;
2023;SDS011;1016;48.770;9.154;2023-01-23T10:00:28;25.93;;;10.07;;
2023;SDS011;1016;48.770;9.154;2023-01-23T10:02:56;26.20;;;10.10;;
2023;SDS011;1016;48.770;9.154;2023-01-23T10:22:10;22.83;;;8.70;;
2023;SDS011;1016;48.770;9.154;2023-01-23T10:24:48;24.63;;;8.97;;
2023;SDS011;1016;48.770;9.154;2023-01-23T10:27:17;24.17;;;9.30;;
2023;SDS011;1016;48.770;9.154;2023-01-23T10:29:47;25.03;;;9.90;;
2023;SDS011;1016;48.770;9.154;2023-01-23T10:32:21;24.30;;;10.17;;
2023;SDS011;1016;48.770;9.154;2023-01-23T10:37:36;24.80;;;9.60;;
2023;SDS011;1016;48.770;9.154;2023-01-23T10:40:14;23.30;;;9.07;;
2023;SDS011;1016;48.770;9.154;2023-01-23T10:43:14;24.90;;;9.73;;
2023;SDS011;1016;48.770;9.154;2023-01-23T10:45:42;25.67;;;9.90;;
2023;SDS011;1016;48.770;9.154;2023-01-23T10:51:02;24.60;;;9.40;;
2023;SDS011;1016;48.770;9.154;2023-01-23T10:53:28;26.30;;;9.80;;
2023;SDS011;1016;48.770;9.154;2023-01-23T10:55:54;26.60;;;10.43;;
2023;SDS011;1016;48.770;9.154;2023-01-23T10:58:35;27.07;;;10.00;;
2023;SDS011;1016;48.770;9.154;2023-01-23T11:01:02;26.70;;;10.60;;
2023;SDS011;1016;48.770;9.154;2023-01-23T11:03:33;26.90;;;10.67;;
2023;SDS011;1016;48.770;9.154;2023-01-23T11:06:06;25.30;;;9.77;;
2023;SDS011;1016;48.770;9.154;2023-01-23T11:08:38;26.50;;;10.47;;
2023;SDS011;1016;48.770;9.154;2023-01-23T11:13:38;25.33;;;10.00;;
2023;SDS011;1016;48.770;9.154;2023-01-23T11:16:04;27.60;;;10.17;;
2023;SDS011;1016;48.770;9.154;2023-01-23T11:18:34;25.70;;;9.77;;
2023;SDS011;1016;48.770;9.154;2023-01-23T11:21:18;26.10;;;10.20;;
2023;SDS011;1016;48.770;9.154;2023-01-23T11:23:45;26.10;;;10.57;;
2023;SDS011;1016;48.770;9.154;2023-01-23T11:26:29;29.13;;;10.70;;
2023;SDS011;1016;48.770;9.154;2023-01-23T11:28:55;26.50;;;10.27;;
2023;SDS011;1016;48.770;9.154;2023-01-23T11:31:21;26.10;;;10.20;;
2023;SDS011;1016;48.770;9.154;2023-01-23T11:33:55;27.80;;;10.97;;
2023;SDS011;1016;48.770;9.154;2023-01-23T11:42:13;27.13;;;11.10;;
2023;SDS011;1016;48.770;9.154;2023-01-23T11:44:40;27.70;;;11.40;;
2023;SDS011;1016;48.770;9.154;2023-01-23T12:01:06;25.97;;;10.10;;
2023;SDS011;1016;48.770;9.154;2023-01-23T12:03:56;29.67;;;10.83;;
2023;SDS011;1016;48.770;9.154;2023-01-23T12:06:38;27.80;;;11.40;;
2023;SDS011;1016;48.770;9.154;2023-01-23T12:09:56;28.60;;;11.20;;
2023;SDS011;1016;48.770;9.154;2023-01-23T12:24:30;27.37;;;10.53;;
2023;SDS011;1016;48.770;9.154;2023-01-23T12:38:29;25.70;;;10.70;;
2023;SDS011;1016;48.770;9.154;2023-01-23T12:44:00;28.00;;;11.23;;
2023;SDS011;1016;48.770;9.154;2023-01-23T12:46:54;27.90;;;11.37;;
2023;SDS011;1016;48.770;9.154;2023-01-23T12:49:34;28.67;;;11.67;;
2023;SDS011;1016;48.770;9.154;2023-01-23T12:52:20;27.60;;;10.70;;
2023;SDS011;1016;48.770;9.154;2023-01-23T12:55:10;28.33;;;11.43;;
2023;SDS011;1016;48.770;9.154;2023-01-23T12:57:40;28.60;;;10.73;;
2023;SDS011;1016;48.770;9.154;2023-01-23T13:05:42;26.90;;;10.80;;
2023;SDS011;1016;48.770;9.154;2023-01-23T13:08:17;28.13;;;10.47;;
2023;SDS011;1016;48.770;9.154;2023-01-23T13:13:46;26.17;;;10.53;;
2023;SDS011;1016;48.770;9.154;2023-01-23T13:16:13;26.77;;;10.70;;
2023;SDS011;1016;48.770;9.154;2023-01-23T13:18:56;25.90;;;10.50;;
2023;SDS011;1016;48.770;9.154;2023-01-23T13:24:38;28.03;;;10.00;;
2023;SDS011;1016;48.770;9.154;2023-01-23T13:33:19;25.23;;;9.80;;
2023;SDS011;1016;48.770;9.154;2023-01-23T13:36:13;29.03;;;11.20;;
2023;SDS011;1016;48.770;9.154;2023-01-23T13:38:58;27.10;;;10.70;;
2023;SDS011;1016;48.770;9.154;2023-01-23T13:41:27;27.27;;;9.60;;
2023;SDS011;1016;48.770;9.154;2023-01-23T13:46:31;27.00;;;10.07;;
2023;SDS011;1016;48.770;9.154;2023-01-23T13:49:34;31.17;;;10.53;;
2023;SDS011;1016;48.770;9.154;2023-01-23T13:52:16;25.60;;;10.00;;
2023;SDS011;1016;48.770;9.154;2023-01-23T13:55:33;26.13;;;10.00;;
2023;SDS011;1016;48.770;9.154;2023-01-23T13:58:24;28.27;;;10.30;;
2023;SDS011;1016;48.770;9.154;2023-01-23T14:00:53;27.87;;;10.70;;
2023;SDS011;1016;48.770;9.154;2023-01-23T14:04:16;28.17;;;9.43;;
2023;SDS011;1016;48.770;9.154;2023-01-23T14:07:02;27.27;;;9.63;;
2023;SDS011;1016;48.770;9.154;2023-01-23T14:09:29;26.07;;;9.87;;
2023;SDS011;1016;48.770;9.154;2023-01-23T14:11:59;28.30;;;10.60;;
2023;SDS011;1016;48.770;9.154;2023-01-23T14:14:32;27.77;;;10.90;;
2023;SDS011;1016;48.770;9.154;2023-01-23T14:17:17;29.37;;;11.13;;
2023;SDS011;1016;48.770;9.154;2023-01-23T14:22:27;29.10;;;11.60;;
2023;SDS011;1016;48.770;9.154;2023-01-23T14:24:53;27.90;;;9.93;;
2023;SDS011;1016;48.770;9.154;2023-01-23T14:27:21;26.53;;;10.50;;
2023;SDS011;1016;48.770;9.154;2023-01-23T14:29:58;28.70;;;10.60;;
2023;SDS011;1016;48.770;9.154;2023-01-23T14:32:28;29.23;;;10.20;;
2023;SDS011;1016;48.770;9.154;2023-01-23T14:34:57;26.70;;;10.37;;
2023;SDS011;1016;48.770;9.154;2023-01-23T14:37:23;28.43;;;10.33;;
2023;SDS011;1016;48.770;9.154;2023-01-23T14:39:50;26.17;;;10.23;;
2023;SDS011;1016;48.770;9.154;2023-01-23T14:42:34;27.80;;;10.77;;
2023;SDS011;1016;48.770;9.154;2023-01-23T14:45:00;27.27;;;10.43;;
2023;SDS011;1016;48.770;9.154;2023-01-23T14:47:27;27.20;;;10.20;;
2023;SDS011;1016;48.770;9.154;2023-01-23T14:50:02;31.73;;;10.53;;
2023;SDS011;1016;48.770;9.154;2023-01-23T14:52:33;24.50;;;9.53;;
2023;SDS011;1016;48.770;9.154;2023-01-23T14:54:59;27.03;;;10.13;;
2023;SDS011;1016;48.770;9.154;2023-01-23T14:57:25;26.43;;;10.17;;
2023;SDS011;1016;48.770;9.154;2023-01-23T14:59:55;27.20;;;10.10;;
2023;SDS011;1016;48.770;9.154;2023-01-23T15:07:50;25.80;;;9.53;;
2023;SDS011;1016;48.770;9.154;2023-01-23T15:10:48;25.83;;;10.27;;
2023;SDS011;1016;48.770;9.154;2023-01-23T15:13:25;26.87;;;11.43;;
2023;SDS011;1016;48.770;9.154;2023-01-23T15:16:20;27.07;;;10.00;;
2023;SDS011;1016;48.770;9.154;2023-01-23T15:18:50;28.13;;;10.77;;
2023;SDS011;1016;48.770;9.154;2023-01-23T15:21:23;25.63;;;9.70;;
2023;SDS011;1016;48.770;9.154;2023-01-23T15:23:58;25.73;;;9.80;;
2023;SDS011;1016;48.770;9.154;2023-01-23T15:26:37;26.27;;;10.10;;
2023;SDS011;1016;48.770;9.154;2023-01-23T15:36:38;27.00;;;11.17;;
2023;SDS011;1016;48.770;9.154;2023-01-23T15:39:28;26.50;;;10.03;;
2023;SDS011;1016;48.770;9.154;2023-01-23T15:44:37;26.37;;;9.40;;
2023;SDS011;1016;48.770;9.154;2023-01-23T15:47:03;25.27;;;9.90;;
2023;SDS011;1016;48.770;9.154;2023-01-23T15:49:30;24.20;;;9.60;;
2023;SDS011;1016;48.770;9.154;2023-01-23T15:51:58;27.30;;;10.37;;
2023;SDS011;1016;48.770;9.154;2023-01-23T15:54:32;25.30;;;9.97;;
2023;SDS011;1016;48.770;9.154;2023-01-23T15:57:00;28.20;;;11.57;;
2023;SDS011;1016;48.770;9.154;2023-01-23T15:59:26;29.43;;;11.43;;
2023;SDS011;1016;48.770;9.154;2023-01-23T16:01:52;26.80;;;11.37;;
2023;SDS011;1016;48.770;9.154;2023-01-23T16:04:18;26.23;;;10.10;;
2023;SDS011;1016;48.770;9.154;2023-01-23T16:06:44;27.03;;;10.97;;
2023;SDS011;1016;48.770;9.154;2023-01-23T16:09:17;26.87;;;10.90;;
2023;SDS011;1016;48.770;9.154;2023-01-23T16:11:47;25.47;;;10.30;;
2023;SDS011;1016;48.770;9.154;2023-01-23T16:14:16;25.87;;;10.40;;
2023;SDS011;1016;48.770;9.154;2023-01-23T16:16:43;24.00;;;10.63;;
2023;SDS011;1016;48.770;9.154;2023-01-23T16:19:09;25.80;;;10.20;;
2023;SDS011;1016;48.770;9.154;2023-01-23T16:21:34;25.20;;;10.63;;
2023;SDS011;1016;48.770;9.154;2023-01-23T16:24:00;25.70;;;11.17;;
2023;SDS011;1016;48.770;9.154;2023-01-23T16:26:26;28.67;;;12.47;;
2023;SDS011;1016;48.770;9.154;2023-01-23T16:28:52;25.33;;;9.97;;
2023;SDS011;1016;48.770;9.154;2023-01-23T16:31:18;26.93;;;11.57;;
2023;SDS011;1016;48.770;9.154;2023-01-23T16:33:43;28.37;;;11.43;;
2023;SDS011;1016;48.770;9.154;2023-01-23T16:36:13;26.37;;;10.67;;
2023;SDS011;1016;48.770;9.154;2023-01-23T16:38:50;26.10;;;11.60;;
2023;SDS011;1016;48.770;9.154;2023-01-23T16:41:17;29.43;;;11.77;;
2023;SDS011;1016;48.770;9.154;2023-01-23T16:43:43;27.50;;;11.77;;
2023;SDS011;1016;48.770;9.154;2023-01-23T16:46:09;27.70;;;11.30;;
2023;SDS011;1016;48.770;9.154;2023-01-23T16:48:35;26.30;;;11.40;;
2023;SDS011;1016;48.770;9.154;2023-01-23T16:51:12;27.97;;;11.10;;
2023;SDS011;1016;48.770;9.154;2023-01-23T16:53:53;27.10;;;11.53;;
2023;SDS011;1016;48.770;9.154;2023-01-23T16:56:22;25.63;;;10.33;;
2023;SDS011;1016;48.770;9.154;2023-01-23T16:58:53;29.20;;;12.40;;
2023;SDS011;1016;48.770;9.154;2023-01-23T17:01:19;27.40;;;11.50;;